Terminal Aerodrome Forecast
Issued by NWS

Current Version | Previous Version | Graphics & Text | Print | Product List | Glossary On
Versions: 1 2 3 4 5 6 7 8 9 10 11 12 13 14 15 16 17 18 19 20 21 22 23 24 25
000
FTUS41 KRLX 012320
TAFCKB
TAF
KCKB 012320Z 0200/0224 02004KT P6SM OVC015
     FM020400 03004KT P6SM OVC025
     FM020600 VRB03KT 3SM SHRA BR OVC015
     FM020800 VRB03KT 2SM SHRA BR OVC010
     FM021100 00000KT 1 1/2SM BR OVC008
     FM021900 00000KT P6SM OVC008
     FM022300 02005KT P6SM BKN050=

USA.gov is the U.S. government's official web portal to all federal, state and local government web resources and services.